KSJN

St Johns Industrial Airpark

St Johns, Arizona, USA
METAR KSJN 151554Z AUTO 00000KT 10SM BKN120 00/M09 A3030 RMK AO2 SLP267 T00001089
Observed Flight Rules
Dec-15 @ 15:54 UTC (10 minutes ago) Visual Flight Rules
Visibility Clouds
10 miles
  • Broken at 12,000' AGL
Temperatures Readings
Current 0°C / 32°F
Dewpoint -9°C / 16°F
Humidity 51%
Altimeter 30.3" Hg
Pressure 1026.7 hPa
Elevation 1745
METAR KSJN 151554Z AUTO 00000KT 10SM BKN120 00/M09 A3030 RMK AO2 SLP267 T00001089
Observed Flight Rules
Dec-15 @ 15:54 UTC
(10 minutes ago)
VFR
Clouds
  • Broken at 12,000' AGL
Temperature Dewpoint
0°C / 32°F -9°C / 16°F
Humidity Altimeter Pressure
51% 30.3" Hg 1026.7 hPa